Terminal Aerodrome Forecast
Issued by NWS

Home | Current Version | Previous Version | Text Only | Print | Product List | Glossary On
Versions: 1 2 3 4 5 6 7 8 9 10 11 12 13 14 15 16 17 18 19 20 21 22 23 24 25
000
FTPA31 PHFO 022300
TAFLIH
TAF
PHLI 022334Z 0300/0324 03015KT P6SM FEW020 SCT045
     FM030600 04013KT P6SM SCT020 BKN045
     FM031800 03012G20KT P6SM SCT020 BKN050=

USA.gov is the U.S. government's official web portal to all federal, state and local government web resources and services.